sensor_id;sensor_type;location;lat;lon;timestamp;temperature;humidity
47773;DHT22;33534;51.028;13.716;2023-06-04T04:47:30;24.50;29.60
47773;DHT22;33534;51.028;13.716;2023-06-04T04:49:55;24.60;29.10
47773;DHT22;33534;51.028;13.716;2023-06-04T04:52:21;25.00;28.40
47773;DHT22;33534;51.028;13.716;2023-06-04T04:54:46;25.50;27.70
47773;DHT22;33534;51.028;13.716;2023-06-04T04:57:12;25.70;27.70
47773;DHT22;33534;51.028;13.716;2023-06-04T05:02:04;26.20;26.90
47773;DHT22;33534;51.028;13.716;2023-06-04T05:04:29;26.30;26.60
47773;DHT22;33534;51.028;13.716;2023-06-04T05:06:55;25.90;26.70
47773;DHT22;33534;51.028;13.716;2023-06-04T05:09:21;26.40;25.80
47773;DHT22;33534;51.028;13.716;2023-06-04T05:11:46;26.50;26.30
47773;DHT22;33534;51.028;13.716;2023-06-04T05:14:12;26.90;25.70
47773;DHT22;33534;51.028;13.716;2023-06-04T05:16:38;27.30;25.20
47773;DHT22;33534;51.028;13.716;2023-06-04T05:23:58;26.40;26.20
47773;DHT22;33534;51.028;13.716;2023-06-04T05:26:23;27.10;25.40
47773;DHT22;33534;51.028;13.716;2023-06-04T05:28:53;27.60;24.80
47773;DHT22;33534;51.028;13.716;2023-06-04T05:31:19;27.70;24.50
47773;DHT22;33534;51.028;13.716;2023-06-04T05:33:44;28.10;24.00
47773;DHT22;33534;51.028;13.716;2023-06-04T05:36:11;28.50;23.90
47773;DHT22;33534;51.028;13.716;2023-06-04T05:38:37;28.00;23.60
47773;DHT22;33534;51.028;13.716;2023-06-04T05:41:03;28.50;23.70
47773;DHT22;33534;51.028;13.716;2023-06-04T05:43:28;29.00;22.90
47773;DHT22;33534;51.028;13.716;2023-06-04T05:50:47;26.50;26.90
47773;DHT22;33534;51.028;13.716;2023-06-04T05:53:13;27.00;25.60
47773;DHT22;33534;51.028;13.716;2023-06-04T05:55:38;28.00;24.20
47773;DHT22;33534;51.028;13.716;2023-06-04T05:58:04;28.10;23.90
47773;DHT22;33534;51.028;13.716;2023-06-04T06:00:29;27.90;23.90
47773;DHT22;33534;51.028;13.716;2023-06-04T06:02:55;27.30;24.40
47773;DHT22;33534;51.028;13.716;2023-06-04T06:05:21;28.10;23.80
47773;DHT22;33534;51.028;13.716;2023-06-04T06:10:13;28.00;24.90
47773;DHT22;33534;51.028;13.716;2023-06-04T06:12:41;28.20;25.00
47773;DHT22;33534;51.028;13.716;2023-06-04T06:15:07;28.40;24.20
47773;DHT22;33534;51.028;13.716;2023-06-04T06:22:25;27.20;25.20
47773;DHT22;33534;51.028;13.716;2023-06-04T06:24:52;27.70;25.00
47773;DHT22;33534;51.028;13.716;2023-06-04T06:29:44;26.90;26.20
47773;DHT22;33534;51.028;13.716;2023-06-04T06:34:36;26.30;26.40
47773;DHT22;33534;51.028;13.716;2023-06-04T06:37:03;26.80;26.00
47773;DHT22;33534;51.028;13.716;2023-06-04T06:39:29;27.70;25.00
47773;DHT22;33534;51.028;13.716;2023-06-04T06:41:55;28.50;24.50
47773;DHT22;33534;51.028;13.716;2023-06-04T06:44:20;29.10;23.40
47773;DHT22;33534;51.028;13.716;2023-06-04T06:51:40;26.90;25.70
47773;DHT22;33534;51.028;13.716;2023-06-04T06:54:08;28.20;23.90
47773;DHT22;33534;51.028;13.716;2023-06-04T07:01:26;26.40;26.30
47773;DHT22;33534;51.028;13.716;2023-06-04T07:06:18;27.60;24.70
47773;DHT22;33534;51.028;13.716;2023-06-04T07:08:43;28.50;23.80
47773;DHT22;33534;51.028;13.716;2023-06-04T07:11:09;27.90;24.70
47773;DHT22;33534;51.028;13.716;2023-06-04T07:16:06;27.70;24.20
47773;DHT22;33534;51.028;13.716;2023-06-04T07:18:32;27.70;23.70
47773;DHT22;33534;51.028;13.716;2023-06-04T07:20:58;27.80;23.40
47773;DHT22;33534;51.028;13.716;2023-06-04T07:23:24;28.90;23.40
47773;DHT22;33534;51.028;13.716;2023-06-04T07:28:16;30.70;20.50
47773;DHT22;33534;51.028;13.716;2023-06-04T07:30:42;31.90;19.90
47773;DHT22;33534;51.028;13.716;2023-06-04T07:33:08;30.00;20.70
47773;DHT22;33534;51.028;13.716;2023-06-04T07:35:33;29.50;21.50
47773;DHT22;33534;51.028;13.716;2023-06-04T07:40:25;29.80;21.00
47773;DHT22;33534;51.028;13.716;2023-06-04T07:42:51;29.70;23.00
47773;DHT22;33534;51.028;13.716;2023-06-04T07:45:16;30.80;21.20
47773;DHT22;33534;51.028;13.716;2023-06-04T07:47:43;32.90;18.90
47773;DHT22;33534;51.028;13.716;2023-06-04T07:50:08;33.70;19.00
47773;DHT22;33534;51.028;13.716;2023-06-04T07:52:34;34.50;19.20
47773;DHT22;33534;51.028;13.716;2023-06-04T07:55:00;31.70;19.90
47773;DHT22;33534;51.028;13.716;2023-06-04T07:59:52;30.30;21.10
47773;DHT22;33534;51.028;13.716;2023-06-04T08:02:18;31.30;19.90
47773;DHT22;33534;51.028;13.716;2023-06-04T08:04:44;30.30;20.70
47773;DHT22;33534;51.028;13.716;2023-06-04T08:07:11;29.60;21.40
47773;DHT22;33534;51.028;13.716;2023-06-04T08:09:36;29.30;21.70
47773;DHT22;33534;51.028;13.716;2023-06-04T08:12:02;30.50;21.20
47773;DHT22;33534;51.028;13.716;2023-06-04T08:14:28;32.00;19.50
47773;DHT22;33534;51.028;13.716;2023-06-04T08:16:54;32.80;19.70
47773;DHT22;33534;51.028;13.716;2023-06-04T08:19:20;33.50;18.90
47773;DHT22;33534;51.028;13.716;2023-06-04T08:21:45;33.90;18.70
47773;DHT22;33534;51.028;13.716;2023-06-04T08:24:12;34.00;18.50
47773;DHT22;33534;51.028;13.716;2023-06-04T08:26:38;33.80;18.20
47773;DHT22;33534;51.028;13.716;2023-06-04T08:29:05;33.70;18.50
47773;DHT22;33534;51.028;13.716;2023-06-04T08:31:31;32.90;18.00
47773;DHT22;33534;51.028;13.716;2023-06-04T08:33:56;31.70;20.90
47773;DHT22;33534;51.028;13.716;2023-06-04T08:36:22;32.40;20.60
47773;DHT22;33534;51.028;13.716;2023-06-04T08:38:48;33.10;19.40
47773;DHT22;33534;51.028;13.716;2023-06-04T08:41:20;32.60;18.80
47773;DHT22;33534;51.028;13.716;2023-06-04T08:43:48;31.70;19.80
47773;DHT22;33534;51.028;13.716;2023-06-04T08:46:15;32.50;20.60
47773;DHT22;33534;51.028;13.716;2023-06-04T08:48:43;33.30;20.00
47773;DHT22;33534;51.028;13.716;2023-06-04T08:51:11;33.80;20.90
47773;DHT22;33534;51.028;13.716;2023-06-04T08:53:36;33.70;20.80
47773;DHT22;33534;51.028;13.716;2023-06-04T08:56:03;33.20;18.10
47773;DHT22;33534;51.028;13.716;2023-06-04T08:58:32;31.30;19.80
47773;DHT22;33534;51.028;13.716;2023-06-04T09:01:01;29.70;22.60
47773;DHT22;33534;51.028;13.716;2023-06-04T09:03:28;29.50;20.80
47773;DHT22;33534;51.028;13.716;2023-06-04T09:05:57;29.90;21.20
47773;DHT22;33534;51.028;13.716;2023-06-04T09:18:25;28.00;21.40
47773;DHT22;33534;51.028;13.716;2023-06-04T09:21:07;28.00;21.50
47773;DHT22;33534;51.028;13.716;2023-06-04T09:26:06;29.70;22.50
47773;DHT22;33534;51.028;13.716;2023-06-04T09:28:33;30.90;22.00
47773;DHT22;33534;51.028;13.716;2023-06-04T09:35:58;29.40;21.30
47773;DHT22;33534;51.028;13.716;2023-06-04T09:38:33;29.20;19.80
47773;DHT22;33534;51.028;13.716;2023-06-04T09:40:59;30.00;21.10
47773;DHT22;33534;51.028;13.716;2023-06-04T09:43:26;30.40;22.40
47773;DHT22;33534;51.028;13.716;2023-06-04T09:45:52;30.30;18.30
47773;DHT22;33534;51.028;13.716;2023-06-04T09:48:21;30.60;20.00
47773;DHT22;33534;51.028;13.716;2023-06-04T09:50:48;30.60;18.20
47773;DHT22;33534;51.028;13.716;2023-06-04T09:53:19;30.40;20.70
47773;DHT22;33534;51.028;13.716;2023-06-04T09:56:01;30.20;21.70
47773;DHT22;33534;51.028;13.716;2023-06-04T09:58:29;30.60;20.60
